createdAt,value
2023-04-01T00:01:20.898Z,1.25
2023-04-01T00:03:48.190Z,1.17
2023-04-01T00:06:17.544Z,1.00
2023-04-01T00:08:45.271Z,0.80
2023-04-01T00:11:12.062Z,1.00
2023-04-01T00:13:38.681Z,0.73
2023-04-01T00:16:17.667Z,0.70
2023-04-01T00:18:48.462Z,0.55
2023-04-01T00:21:16.296Z,0.80
2023-04-01T00:23:43.212Z,0.60
2023-04-01T00:26:10.300Z,0.65
2023-04-01T00:28:37.092Z,1.23
2023-04-01T00:31:11.376Z,1.15
2023-04-01T00:33:39.268Z,0.70
2023-04-01T00:36:14.909Z,0.85
2023-04-01T00:38:43.506Z,1.00
2023-04-01T00:41:15.284Z,0.63
2023-04-01T00:43:43.927Z,0.70
2023-04-01T00:46:10.628Z,0.68
2023-04-01T00:48:41.120Z,1.00
2023-04-01T00:51:16.228Z,0.50
2023-04-01T00:53:46.477Z,0.70
2023-04-01T00:56:23.732Z,0.40
2023-04-01T00:59:01.204Z,0.60
2023-04-01T01:01:30.801Z,0.50
2023-04-01T01:03:57.734Z,0.40
2023-04-01T01:06:49.375Z,0.43
2023-04-01T01:09:31.599Z,0.32
2023-04-01T01:12:21.460Z,0.40
2023-04-01T01:14:56.580Z,0.30
2023-04-01T01:17:45.642Z,0.30
2023-04-01T01:20:43.265Z,0.30
2023-04-01T01:23:43.202Z,0.28
2023-04-01T01:26:47.660Z,0.38
2023-04-01T01:29:27.739Z,0.20
2023-04-01T01:32:14.262Z,0.30
2023-04-01T01:35:13.123Z,0.17
2023-04-01T01:37:42.823Z,0.22
2023-04-01T01:40:17.618Z,0.30
2023-04-01T01:42:51.992Z,0.30
2023-04-01T01:45:22.633Z,0.20
2023-04-01T01:47:51.833Z,0.30
2023-04-01T01:50:19.842Z,0.40
2023-04-01T01:52:47.298Z,0.20
2023-04-01T01:55:35.968Z,0.30
2023-04-01T01:58:15.006Z,0.28
2023-04-01T02:00:45.209Z,0.20
2023-04-01T02:03:15.050Z,0.20
2023-04-01T02:05:41.838Z,0.32
2023-04-01T02:08:46.307Z,0.30
2023-04-01T02:11:16.714Z,0.32
2023-04-01T02:13:57.416Z,0.30
2023-04-01T02:16:35.715Z,0.28
2023-04-01T02:19:08.257Z,0.52
2023-04-01T02:21:37.488Z,0.50
2023-04-01T02:24:09.172Z,0.50
2023-04-01T02:26:36.527Z,0.47
2023-04-01T02:29:05.831Z,0.80
2023-04-01T02:31:33.562Z,0.45
2023-04-01T02:34:00.970Z,0.50
2023-04-01T02:36:27.721Z,0.55
2023-04-01T02:38:55.888Z,0.43
2023-04-01T02:41:22.611Z,0.57
2023-04-01T02:43:49.663Z,0.50
2023-04-01T02:46:16.332Z,0.38
2023-04-01T02:48:42.991Z,1.05
2023-04-01T02:51:10.204Z,0.50
2023-04-01T02:53:36.879Z,0.88
2023-04-01T02:56:03.673Z,0.75
2023-04-01T02:58:30.461Z,1.20
2023-04-01T03:00:57.216Z,1.30
2023-04-01T03:03:24.016Z,0.43
2023-04-01T03:05:50.708Z,1.00
2023-04-01T03:08:17.396Z,1.13
2023-04-01T03:10:43.992Z,1.30
2023-04-01T03:13:11.007Z,1.08
2023-04-01T03:15:37.772Z,0.55
2023-04-01T03:18:04.581Z,1.02
2023-04-01T03:20:31.374Z,0.70
2023-04-01T03:22:58.605Z,0.88
2023-04-01T03:25:25.405Z,1.05
2023-04-01T03:27:52.434Z,1.02
2023-04-01T03:30:19.154Z,1.17
2023-04-01T03:32:45.895Z,0.95
2023-04-01T03:35:12.597Z,1.02
2023-04-01T03:37:39.430Z,1.17
2023-04-01T03:40:06.793Z,1.45
2023-04-01T03:42:33.660Z,0.95
2023-04-01T03:45:00.461Z,1.50
2023-04-01T03:47:27.207Z,1.35
2023-04-01T03:49:54.048Z,1.25
2023-04-01T03:52:20.898Z,1.05
2023-04-01T03:54:47.753Z,0.98
2023-04-01T03:57:14.467Z,1.23
2023-04-01T03:59:41.255Z,0.60
2023-04-01T04:02:07.938Z,0.90
2023-04-01T04:04:34.989Z,0.70
2023-04-01T04:07:01.783Z,0.80
2023-04-01T04:09:28.614Z,0.60
2023-04-01T04:11:55.560Z,0.55
2023-04-01T04:14:23.452Z,0.90
2023-04-01T04:16:50.218Z,1.00
2023-04-01T04:19:16.848Z,0.45
2023-04-01T04:21:43.503Z,0.55
2023-04-01T04:24:10.717Z,0.50
2023-04-01T04:26:37.830Z,0.60
2023-04-01T04:29:04.747Z,0.50
2023-04-01T04:31:31.440Z,0.52
2023-04-01T04:34:01.449Z,0.45
2023-04-01T04:36:28.292Z,0.57
2023-04-01T04:38:54.954Z,0.60
2023-04-01T04:41:22.878Z,0.57
2023-04-01T04:43:52.540Z,0.65
2023-04-01T04:46:19.815Z,0.65
2023-04-01T04:48:46.556Z,0.50
2023-04-01T04:51:20.921Z,0.70
2023-04-01T04:53:47.706Z,0.60
2023-04-01T04:56:14.404Z,0.70
2023-04-01T04:58:41.278Z,0.60
2023-04-01T05:01:12.686Z,0.60
2023-04-01T05:03:39.841Z,0.82
2023-04-01T05:06:08.408Z,1.05
2023-04-01T05:08:35.479Z,0.80
2023-04-01T05:11:03.233Z,0.90
2023-04-01T05:13:30.429Z,0.90
2023-04-01T05:15:57.027Z,1.35
2023-04-01T05:18:23.780Z,0.73
2023-04-01T05:20:52.792Z,0.98
2023-04-01T05:23:22.059Z,0.65
2023-04-01T05:25:52.174Z,0.80
2023-04-01T05:28:19.453Z,0.65
2023-04-01T05:30:46.303Z,0.70
2023-04-01T05:33:14.109Z,0.47
2023-04-01T05:35:41.947Z,0.50
2023-04-01T05:38:08.995Z,0.60
2023-04-01T05:40:35.971Z,0.80
2023-04-01T05:43:02.782Z,0.55
2023-04-01T05:45:29.461Z,0.85
2023-04-01T05:47:56.230Z,0.82
2023-04-01T05:50:23.273Z,0.73
2023-04-01T05:52:50.233Z,0.77
2023-04-01T05:55:17.138Z,0.70
2023-04-01T05:57:46.182Z,0.70
2023-04-01T06:00:14.034Z,0.60
2023-04-01T06:02:43.570Z,0.88
2023-04-01T06:05:23.934Z,0.50
2023-04-01T06:07:56.027Z,0.80
2023-04-01T06:10:28.855Z,0.95
2023-04-01T06:13:18.256Z,1.10
2023-04-01T06:16:29.251Z,1.60
2023-04-01T06:19:30.193Z,0.90
2023-04-01T06:22:14.473Z,1.47
2023-04-01T06:24:55.918Z,1.17
2023-04-01T06:27:42.389Z,0.90
2023-04-01T06:30:12.070Z,1.40
2023-04-01T06:32:41.614Z,1.30
2023-04-01T06:35:44.167Z,1.33
2023-04-01T06:38:21.403Z,1.13
2023-04-01T06:40:56.835Z,1.15
2023-04-01T06:43:43.709Z,1.10
2023-04-01T06:46:26.393Z,1.30
2023-04-01T06:49:11.789Z,1.45
2023-04-01T06:52:00.900Z,1.20
2023-04-01T06:54:36.655Z,1.55
2023-04-01T06:57:48.633Z,1.35
2023-04-01T07:00:23.706Z,1.38
2023-04-01T07:02:59.586Z,1.38
2023-04-01T07:05:30.634Z,1.55
2023-04-01T07:08:00.939Z,0.95
2023-04-01T07:10:40.414Z,1.10
2023-04-01T07:13:16.083Z,1.17
2023-04-01T07:15:46.928Z,0.93
2023-04-01T07:18:26.680Z,1.05
2023-04-01T07:20:54.216Z,1.00
2023-04-01T07:23:25.949Z,0.70
2023-04-01T07:25:57.447Z,1.08
2023-04-01T07:28:24.187Z,1.52
2023-04-01T07:31:09.236Z,0.75
2023-04-01T07:34:07.160Z,1.20
2023-04-01T07:36:48.066Z,1.30
2023-04-01T07:39:26.804Z,1.83
2023-04-01T07:42:24.059Z,1.13
2023-04-01T07:45:09.491Z,1.20
2023-04-01T07:48:20.668Z,1.45
2023-04-01T07:51:26.058Z,1.17
2023-04-01T07:54:06.467Z,1.60
2023-04-01T07:56:44.595Z,1.10
2023-04-01T07:59:23.453Z,1.07
2023-04-01T08:02:11.499Z,1.25
2023-04-01T08:05:07.483Z,1.20
2023-04-01T08:08:07.096Z,1.10
2023-04-01T08:10:36.587Z,0.95
2023-04-01T08:13:06.057Z,1.13
2023-04-01T08:16:16.872Z,1.13
2023-04-01T08:19:02.654Z,1.00
2023-04-01T08:21:35.874Z,0.93
2023-04-01T08:24:27.882Z,0.75
2023-04-01T08:27:00.901Z,1.00
2023-04-01T08:29:41.028Z,0.70
2023-04-01T08:32:21.463Z,0.80
2023-04-01T08:34:56.125Z,0.47
2023-04-01T08:37:30.088Z,0.82
2023-04-01T08:40:20.262Z,0.50
2023-04-01T08:43:04.877Z,0.57
2023-04-01T08:45:41.285Z,0.63
2023-04-01T08:48:45.908Z,0.65
2023-04-01T08:55:23.658Z,0.40
2023-04-01T08:58:28.045Z,0.50
2023-04-01T09:00:58.993Z,0.93
2023-04-01T09:03:41.781Z,0.80
2023-04-01T09:06:29.758Z,1.70
2023-04-01T09:09:33.567Z,0.82
2023-04-01T09:12:38.696Z,0.47
2023-04-01T09:16:01.999Z,0.50
2023-04-01T09:18:31.571Z,0.60
2023-04-01T09:21:13.631Z,0.90
2023-04-01T09:24:04.947Z,0.85
2023-04-01T09:26:59.689Z,0.77
2023-04-01T09:29:36.647Z,1.08
2023-04-01T09:32:38.614Z,1.48
2023-04-01T09:35:24.410Z,2.40
2023-04-01T09:38:14.452Z,1.77
2023-04-01T09:41:28.962Z,1.70
2023-04-01T09:43:59.909Z,0.80
2023-04-01T09:46:38.942Z,0.80
2023-04-01T09:49:21.694Z,0.40
2023-04-01T09:52:12.620Z,0.63
2023-04-01T09:54:57.835Z,3.15
2023-04-01T09:57:46.518Z,0.70
2023-04-01T10:00:27.670Z,1.63
2023-04-01T10:03:32.163Z,1.80
2023-04-01T10:06:17.689Z,1.00
2023-04-01T10:09:11.881Z,4.05
2023-04-01T10:12:03.297Z,3.33
2023-04-01T10:14:38.986Z,1.38
2023-04-01T10:17:14.696Z,2.40
2023-04-01T10:20:18.357Z,3.03
2023-04-01T10:23:24.150Z,2.65
2023-04-01T10:26:05.064Z,3.88
2023-04-01T10:28:37.529Z,1.58
2023-04-01T10:31:04.186Z,2.38
2023-04-01T10:33:59.639Z,1.73
2023-04-01T10:36:44.822Z,4.32
2023-04-01T10:39:49.214Z,2.30
2023-04-01T10:42:38.802Z,2.60
2023-04-01T10:45:20.609Z,1.77
2023-04-01T10:48:25.331Z,1.33
2023-04-01T10:51:23.220Z,0.70
2023-04-01T10:54:33.942Z,0.40
2023-04-01T10:57:17.609Z,0.77
2023-04-01T10:59:53.127Z,0.50
2023-04-01T11:02:50.742Z,0.70
2023-04-01T11:05:57.460Z,0.90
2023-04-01T11:08:40.436Z,1.60
2023-04-01T11:11:30.948Z,1.70
2023-04-01T11:14:33.277Z,1.58
2023-04-01T11:17:08.732Z,2.00
2023-04-01T11:20:03.418Z,2.25
2023-04-01T11:23:06.058Z,1.55
2023-04-01T11:25:51.727Z,0.60
2023-04-01T11:28:41.430Z,0.77
2023-04-01T11:31:34.444Z,0.50
2023-04-01T11:34:35.195Z,0.52
2023-04-01T11:37:20.320Z,1.20
2023-04-01T11:40:07.114Z,0.75
2023-04-01T11:43:00.383Z,0.90
2023-04-01T11:45:40.747Z,0.70
2023-04-01T11:48:28.730Z,0.40
2023-04-01T11:51:36.680Z,0.55
2023-04-01T11:54:37.384Z,0.40
2023-04-01T11:57:43.886Z,0.70
2023-04-01T12:00:32.170Z,0.47
2023-04-01T12:03:20.754Z,1.30
2023-04-01T12:06:09.361Z,1.83
2023-04-01T12:08:45.937Z,2.10
2023-04-01T12:11:42.842Z,1.88
2023-04-01T12:14:41.049Z,1.30
2023-04-01T12:17:47.187Z,1.15
2023-04-01T12:20:13.890Z,1.20
2023-04-01T12:22:59.139Z,1.30
2023-04-01T12:25:48.629Z,1.58
2023-04-01T12:28:26.376Z,1.40
2023-04-01T12:31:21.954Z,1.20
2023-04-01T12:34:19.387Z,1.45
2023-04-01T12:37:11.336Z,1.63
2023-04-01T12:40:07.106Z,0.70
2023-04-01T12:42:55.608Z,1.00
2023-04-01T12:45:31.735Z,1.08
2023-04-01T12:48:34.380Z,0.90
2023-04-01T12:51:27.904Z,1.30
2023-04-01T12:54:19.641Z,1.00
2023-04-01T12:57:01.460Z,1.40
2023-04-01T12:59:52.461Z,0.73
2023-04-01T13:02:27.971Z,1.20
2023-04-01T13:05:13.738Z,0.80
2023-04-01T13:07:51.388Z,0.47
2023-04-01T13:14:32.162Z,1.00
2023-04-01T13:17:45.936Z,0.60
2023-04-01T13:20:54.719Z,0.85
2023-04-01T13:23:44.205Z,1.42
2023-04-01T13:26:29.700Z,1.15
2023-04-01T13:29:23.018Z,0.32
2023-04-01T13:31:49.748Z,0.82
2023-04-01T13:34:23.607Z,0.60
2023-04-01T13:36:59.025Z,0.70
2023-04-01T13:39:43.903Z,0.57
2023-04-01T13:42:28.853Z,0.90
2023-04-01T13:45:20.117Z,0.30
2023-04-01T13:48:04.960Z,0.40
2023-04-01T13:50:47.999Z,0.40
2023-04-01T13:53:38.741Z,0.40
2023-04-01T13:56:11.236Z,0.43
2023-04-01T13:58:51.755Z,5.13
2023-04-01T14:01:47.204Z,1.08
2023-04-01T14:04:50.925Z,0.20
2023-04-01T14:07:38.738Z,0.80
2023-04-01T14:10:34.047Z,0.57
2023-04-01T14:13:21.749Z,0.40
2023-04-01T14:16:00.313Z,0.80
2023-04-01T14:18:48.979Z,0.80
2023-04-01T14:21:30.419Z,0.57
2023-04-01T14:24:07.855Z,0.50
2023-04-01T14:26:35.259Z,0.40
2023-04-01T14:29:19.852Z,0.90
2023-04-01T14:32:02.886Z,1.20
2023-04-01T14:34:56.425Z,0.73
2023-04-01T14:37:47.224Z,1.40
2023-04-01T14:40:46.206Z,1.30
2023-04-01T14:43:21.708Z,0.95
2023-04-01T14:46:06.944Z,1.40
2023-04-01T14:48:59.773Z,0.90
2023-04-01T14:51:31.973Z,1.10
2023-04-01T14:54:26.388Z,1.90
2023-04-01T14:57:14.009Z,1.48
2023-04-01T14:59:54.435Z,2.60
2023-04-01T15:02:48.008Z,1.55
2023-04-01T15:05:29.631Z,1.02
2023-04-01T15:08:18.814Z,0.88
2023-04-01T15:11:06.399Z,2.88
2023-04-01T15:13:39.530Z,4.82
2023-04-01T15:16:36.935Z,3.88
2023-04-01T15:19:39.499Z,2.08
2023-04-01T15:22:48.357Z,1.25
2023-04-01T15:25:33.838Z,1.70
2023-04-01T15:28:19.613Z,1.10
2023-04-01T15:31:01.331Z,1.10
2023-04-01T15:33:42.349Z,0.98
2023-04-01T15:36:24.180Z,0.82
2023-04-01T15:39:04.769Z,1.40
2023-04-01T15:42:09.261Z,1.70
2023-04-01T15:44:48.310Z,1.20
2023-04-01T15:47:27.070Z,1.38
2023-04-01T15:50:17.092Z,2.05
2023-04-01T15:52:52.601Z,1.77
2023-04-01T15:55:22.243Z,1.50
2023-04-01T15:57:57.731Z,1.50
2023-04-01T16:00:30.205Z,1.27
2023-04-01T16:03:20.036Z,1.50
2023-04-01T16:06:13.766Z,1.30
2023-04-01T16:08:54.107Z,1.52
2023-04-01T16:11:37.527Z,1.40
2023-04-01T16:14:14.963Z,1.40
2023-04-01T16:17:13.652Z,1.05
2023-04-01T16:19:52.378Z,2.00
2023-04-01T16:22:39.246Z,3.22
2023-04-01T16:25:32.597Z,2.65
2023-04-01T16:28:22.276Z,1.95
2023-04-01T16:31:38.680Z,1.52
2023-04-01T16:34:20.625Z,1.77
2023-04-01T16:36:55.538Z,1.00
2023-04-01T16:39:47.639Z,0.80
2023-04-01T16:42:26.985Z,0.70
2023-04-01T16:45:21.240Z,1.60
2023-04-01T16:47:49.821Z,2.67
2023-04-01T16:50:21.930Z,2.45
2023-04-01T16:53:22.573Z,1.90
2023-04-01T16:56:01.741Z,3.35
2023-04-01T16:58:37.580Z,2.60
2023-04-01T17:01:07.110Z,2.28
2023-04-01T17:03:40.151Z,7.07
2023-04-01T17:06:25.416Z,2.60
2023-04-01T17:09:12.558Z,6.40
2023-04-01T17:11:57.700Z,4.07
2023-04-01T17:14:34.828Z,3.28
2023-04-01T17:17:20.313Z,1.83
2023-04-01T17:20:21.309Z,1.23
2023-04-01T17:23:10.649Z,1.27
2023-04-01T17:26:00.414Z,1.42
2023-04-01T17:28:53.522Z,2.08
2023-04-01T17:31:41.894Z,2.63
2023-04-01T17:34:48.439Z,1.77
2023-04-01T17:37:35.051Z,1.38
2023-04-01T17:40:22.057Z,1.30
2023-04-01T17:43:08.047Z,1.05
2023-04-01T17:45:56.077Z,1.20
2023-04-01T17:48:28.255Z,1.15
2023-04-01T17:51:07.107Z,1.55
2023-04-01T17:54:05.741Z,7.10
2023-04-01T17:57:05.722Z,7.68
2023-04-01T17:59:45.546Z,6.05
2023-04-01T18:02:59.240Z,4.10
2023-04-01T18:06:10.843Z,2.83
2023-04-01T18:08:37.471Z,1.75
2023-04-01T18:11:17.192Z,1.90
2023-04-01T18:14:25.804Z,1.52
2023-04-01T18:17:23.681Z,1.48
2023-04-01T18:20:25.596Z,1.10
2023-04-01T18:23:20.151Z,1.38
2023-04-01T18:25:49.713Z,0.98
2023-04-01T18:28:28.401Z,1.50
2023-04-01T18:31:09.139Z,1.00
2023-04-01T18:33:54.258Z,1.40
2023-04-01T18:36:43.030Z,1.27
2023-04-01T18:39:25.416Z,1.05
2023-04-01T18:42:01.342Z,1.58
2023-04-01T18:44:51.595Z,1.33
2023-04-01T18:47:39.408Z,1.38
2023-04-01T18:50:27.594Z,1.80
2023-04-01T18:53:32.478Z,4.18
2023-04-01T18:56:02.293Z,4.15
2023-04-01T18:58:48.084Z,2.30
2023-04-01T19:01:44.237Z,1.50
2023-04-01T19:04:18.292Z,2.20
2023-04-01T19:06:53.157Z,1.83
2023-04-01T19:09:24.035Z,1.83
2023-04-01T19:12:08.958Z,1.52
2023-04-01T19:14:53.789Z,1.73
2023-04-01T19:17:48.350Z,2.55
2023-04-01T19:20:26.950Z,3.92
2023-04-01T19:23:02.900Z,3.15
2023-04-01T19:25:50.948Z,2.00
2023-04-01T19:28:33.011Z,3.50
2023-04-01T19:31:17.705Z,4.43
2023-04-01T19:33:44.383Z,4.13
2023-04-01T19:36:31.649Z,3.92
2023-04-01T19:39:01.133Z,2.10
2023-04-01T19:41:40.599Z,3.28
2023-04-01T19:44:25.416Z,2.05
2023-04-01T19:47:23.612Z,1.30
2023-04-01T19:50:11.585Z,0.95
2023-04-01T19:52:41.908Z,0.98
2023-04-01T19:55:40.810Z,1.30
2023-04-01T19:58:07.411Z,1.60
2023-04-01T20:01:01.412Z,1.48
2023-04-01T20:03:52.560Z,0.93
2023-04-01T20:06:44.265Z,0.85
2023-04-01T20:13:10.672Z,1.40
2023-04-01T20:15:56.755Z,1.60
2023-04-01T20:18:29.252Z,1.55
2023-04-01T20:21:07.529Z,1.40
2023-04-01T20:23:44.917Z,1.42
2023-04-01T20:26:20.329Z,1.85
2023-04-01T20:29:24.559Z,1.25
2023-04-01T20:32:07.206Z,1.00
2023-04-01T20:34:41.232Z,1.08
2023-04-01T20:37:11.105Z,0.80
2023-04-01T20:39:49.713Z,1.02
2023-04-01T20:42:33.351Z,1.03
2023-04-01T20:45:33.244Z,0.97
2023-04-01T20:48:28.645Z,1.30
2023-04-01T20:51:02.766Z,1.63
2023-04-01T20:53:38.204Z,2.20
2023-04-01T20:56:19.991Z,1.07
2023-04-01T20:59:24.868Z,1.13
2023-04-01T21:02:23.735Z,0.90
2023-04-01T21:05:28.966Z,0.82
2023-04-01T21:08:27.049Z,0.57
2023-04-01T21:11:21.751Z,0.90
2023-04-01T21:14:02.692Z,0.73
2023-04-01T21:16:42.303Z,1.20
2023-04-01T21:19:56.281Z,1.67
2023-04-01T21:22:45.906Z,1.40
2023-04-01T21:25:33.197Z,2.25
2023-04-01T21:28:28.700Z,2.33
2023-04-01T21:31:05.371Z,3.60
2023-04-01T21:33:50.315Z,1.42
2023-04-01T21:36:37.608Z,0.97
2023-04-01T21:39:28.235Z,0.80
2023-04-01T21:42:04.694Z,0.70
2023-04-01T21:45:06.672Z,0.90
2023-04-01T21:48:06.992Z,0.82
2023-04-01T21:51:12.932Z,0.90
2023-04-01T21:53:57.770Z,0.70
2023-04-01T21:56:30.389Z,0.63
2023-04-01T21:59:01.836Z,1.00
2023-04-01T22:01:59.620Z,0.80
2023-04-01T22:05:08.482Z,1.13
2023-04-01T22:07:56.167Z,1.00
2023-04-01T22:10:47.964Z,1.17
2023-04-01T22:13:22.562Z,0.93
2023-04-01T22:16:10.548Z,0.83
2023-04-01T22:18:46.911Z,0.70
2023-04-01T22:21:45.756Z,0.83
2023-04-01T22:24:30.878Z,0.60
2023-04-01T22:27:30.288Z,0.67
2023-04-01T22:30:22.447Z,0.60
2023-04-01T22:32:53.702Z,0.60
2023-04-01T22:35:27.608Z,0.77
2023-04-01T22:38:06.193Z,0.40
2023-04-01T22:40:54.896Z,0.57
2023-04-01T22:43:32.868Z,0.60
2023-04-01T22:46:27.603Z,0.60
2023-04-01T22:49:00.114Z,0.70
2023-04-01T22:51:52.647Z,0.60
2023-04-01T22:54:30.599Z,0.50
2023-04-01T22:57:04.925Z,0.60
2023-04-01T22:59:49.083Z,0.57
2023-04-01T23:02:29.671Z,0.60
2023-04-01T23:05:01.287Z,0.60
2023-04-01T23:07:47.673Z,0.40
2023-04-01T23:10:38.729Z,0.63
2023-04-01T23:13:11.175Z,0.67
2023-04-01T23:15:38.821Z,0.40
2023-04-01T23:18:38.654Z,0.50
2023-04-01T23:21:11.572Z,0.70
2023-04-01T23:23:57.985Z,0.70
2023-04-01T23:26:34.149Z,0.70
2023-04-01T23:29:01.421Z,0.60
2023-04-01T23:31:36.317Z,0.60
2023-04-01T23:34:12.183Z,0.60
2023-04-01T23:36:41.989Z,0.60
2023-04-01T23:39:33.077Z,0.80
2023-04-01T23:42:13.284Z,0.77
2023-04-01T23:44:40.702Z,0.63
2023-04-01T23:47:13.382Z,0.67
2023-04-01T23:49:45.636Z,0.40
2023-04-01T23:52:25.291Z,0.47
2023-04-01T23:55:14.875Z,0.50
2023-04-01T23:57:41.575Z,0.60
